Time;durP1;ratioP1;P1;durP2;ratioP2;P2;SDS_P1;SDS_P2;PMS_P1;PMS_P2;Temp;Humidity;BMP_temperature;BMP_pressure;BME280_temperature;BME280_humidity;BME280_pressure;Samples;Min_cycle;Max_cycle;Signal;HPM_P1;HPM_P2
2021/10/24 00:00:25;;;;;;;;;;;;;;;;;;1021324;28;1687;-13
2021/10/24 00:00:55;;;;;;;;;;;;;;;;;;1017747;29;1090;-13
2021/10/24 00:01:27;;;;;;;;;;;;;;;;;;1018001;28;1174;-13
2021/10/24 00:01:57;;;;;;;;;;;;;;;;;;1020984;29;1378;-13
2021/10/24 00:02:29;;;;;;;;;;;;;;;;;;1017738;29;1202;-13
2021/10/24 00:02:59;;;;;;;;;;;;;;;;;;1025310;28;1211;-12
2021/10/24 00:03:30;;;;;;;;;;;;;;;;;;1021322;29;1230;-12
2021/10/24 00:04:01;;;;;;;;;;;;;;;;;;1018048;29;1041;-13
2021/10/24 00:04:32;;;;;;;;;;;;;;;;;;1017579;29;1254;-13
2021/10/24 00:05:06;;;;;;;;;;;;;;;;;;1021419;28;1413;-13
2021/10/24 00:05:36;;;;;;;;;;;;;;;;;;1025855;28;1152;-13
2021/10/24 00:06:07;;;;;;;;;;;;;;;;;;1029610;28;1127;-13
2021/10/24 00:06:37;;;;;;;;;;;;;;;;;;1022060;28;954;-13
2021/10/24 00:07:08;;;;;;;;;;;;;;;;;;1025362;28;1173;-13
2021/10/24 00:07:39;;;;;;;;;;;;;;;;;;1025563;28;1069;-13
2021/10/24 00:08:09;;;;;;;;;;;;;;;;;;1026066;28;1051;-14
2021/10/24 00:08:40;;;;;;;;;;;;;;;;;;1033012;28;1758;-14
2021/10/24 00:09:10;;;;;;;;;;;;;;;;;;1029893;28;1083;-14
2021/10/24 00:09:40;;;;;;;;;;;;;;;;;;1034181;28;1165;-13
2021/10/24 00:10:11;;;;;;;;;;;;;;;;;;1034525;28;992;-12
2021/10/24 00:10:41;;;;;;;;;;;;;;;;;;1034546;28;1152;-13
2021/10/24 00:11:12;;;;;;;;;;;;;;;;;;1028888;28;1227;-13
2021/10/24 00:11:43;;;;;;;;;;;;;;;;;;1029828;28;1040;-12
2021/10/24 00:12:13;;;;;;;;;;;;;;;;;;1025637;28;1138;-12
2021/10/24 00:12:44;;;;;;;;;;;;;;;;;;1025624;28;1178;-14
2021/10/24 00:13:14;;;;;;;;;;;;;;;;;;1025707;28;1286;-13
2021/10/24 00:13:45;;;;;;;;;;;;;;;;;;1017126;29;1360;-12
2021/10/24 00:14:15;;;;;;;;;;;;;;;;;;1021631;29;1184;-14
2021/10/24 00:14:46;;;;;;;;;;;;;;;;;;1022086;28;1021;-13
2021/10/24 00:15:16;;;;;;;;;;;;;;;;;;1020546;28;1978;-13
2021/10/24 00:15:48;;;;;;;;;;;;;;;;;;1025161;28;1233;-13
2021/10/24 00:16:19;;;;;;;;;;;;;;;;;;1025270;28;1110;-12
2021/10/24 00:16:49;;;;;;;;;;;;;;;;;;1022079;28;989;-13
2021/10/24 00:17:20;;;;;;;;;;;;;;;;;;1025697;28;1056;-13
2021/10/24 00:17:51;;;;;;;;;;;;;;;;;;1021103;29;1305;-14
2021/10/24 00:18:22;;;;;;;;;;;;;;;;;;1021670;28;1243;-13
2021/10/24 00:18:53;;;;;;;;;;;;;;;;;;1021486;29;1021;-12
2021/10/24 00:19:24;;;;;;;;;;;;;;;;;;1021763;28;1047;-13
2021/10/24 00:19:55;;;;;;;;;;;;;;;;;;1025110;28;1166;-13
2021/10/24 00:20:25;;;;;;;;;;;;;;;;;;1013293;29;1846;-12
2021/10/24 00:20:56;;;;;;;;;;;;;;;;;;1013958;29;1069;-12
2021/10/24 00:21:27;;;;;;;;;;;;;;;;;;1025631;28;1156;-13
2021/10/24 00:21:57;;;;;;;;;;;;;;;;;;1029440;28;1153;-12
2021/10/24 00:22:28;;;;;;;;;;;;;;;;;;1033675;28;1060;-14
2021/10/24 00:22:59;;;;;;;;;;;;;;;;;;1033816;28;1119;-13
2021/10/24 00:23:30;;;;;;;;;;;;;;;;;;1025472;28;966;-13
2021/10/24 00:24:00;;;;;;;;;;;;;;;;;;1025710;28;1062;-13
2021/10/24 00:24:31;;;;;;;;;;;;;;;;;;1029784;28;1099;-13
2021/10/24 00:25:02;;;;;;;;;;;;;;;;;;1029955;28;1134;-13
2021/10/24 00:25:33;;;;;;;;;;;;;;;;;;1033225;28;1293;-12
2021/10/24 00:26:03;;;;;;;;;;;;;;;;;;1033696;28;1212;-13
2021/10/24 00:26:34;;;;;;;;;;;;;;;;;;1033317;28;1220;-13
2021/10/24 00:27:05;;;;;;;;;;;;;;;;;;1029709;28;1055;-12
2021/10/24 00:27:35;;;;;;;;;;;;;;;;;;1029803;28;1036;-13
2021/10/24 00:28:06;;;;;;;;;;;;;;;;;;1021879;29;1142;-12
2021/10/24 00:28:37;;;;;;;;;;;;;;;;;;1017974;29;1577;-13
2021/10/24 00:29:08;;;;;;;;;;;;;;;;;;1022234;28;1170;-12
2021/10/24 00:29:39;;;;;;;;;;;;;;;;;;1025071;28;1667;-13
2021/10/24 00:30:10;;;;;;;;;;;;;;;;;;1025033;28;1139;-14
2021/10/24 00:30:41;;;;;;;;;;;;;;;;;;1021749;28;1138;-12
2021/10/24 00:31:12;;;;;;;;;;;;;;;;;;1024617;28;1399;-14
2021/10/24 00:31:42;;;;;;;;;;;;;;;;;;1025401;28;1190;-12
2021/10/24 00:32:14;;;;;;;;;;;;;;;;;;1032511;28;1322;-12
2021/10/24 00:32:44;;;;;;;;;;;;;;;;;;1029128;28;1147;-13
2021/10/24 00:33:15;;;;;;;;;;;;;;;;;;1021789;29;1029;-13
2021/10/24 00:33:46;;;;;;;;;;;;;;;;;;1032406;28;1373;-14
2021/10/24 00:34:17;;;;;;;;;;;;;;;;;;1029651;28;1252;-13
2021/10/24 00:34:48;;;;;;;;;;;;;;;;;;1025293;28;1559;-13
2021/10/24 00:35:18;;;;;;;;;;;;;;;;;;1028863;28;1903;-13
2021/10/24 00:35:50;;;;;;;;;;;;;;;;;;1021986;28;1529;-12
2021/10/24 00:36:21;;;;;;;;;;;;;;;;;;1021469;28;1134;-13
2021/10/24 00:36:52;;;;;;;;;;;;;;;;;;1021836;29;1184;-13
2021/10/24 00:37:22;;;;;;;;;;;;;;;;;;1021359;29;1188;-13
2021/10/24 00:37:52;;;;;;;;;;;;;;;;;;1021268;28;1410;-12
2021/10/24 00:38:23;;;;;;;;;;;;;;;;;;1033602;28;1212;-12
2021/10/24 00:38:53;;;;;;;;;;;;;;;;;;1033505;28;1210;-13
2021/10/24 00:39:24;;;;;;;;;;;;;;;;;;1033418;28;1166;-14
2021/10/24 00:39:55;;;;;;;;;;;;;;;;;;1029831;28;1654;-13
2021/10/24 00:40:26;;;;;;;;;;;;;;;;;;1017374;29;1116;-13
2021/10/24 00:40:56;;;;;;;;;;;;;;;;;;1021834;29;1101;-14
2021/10/24 00:41:30;;;;;;;;;;;;;;;;;;1021687;29;1138;-13
2021/10/24 00:42:01;;;;;;;;;;;;;;;;;;1018741;28;958;-13
2021/10/24 00:42:31;;;;;;;;;;;;;;;;;;1023796;28;1097;-13
2021/10/24 00:43:02;;;;;;;;;;;;;;;;;;1013403;29;1484;-13
2021/10/24 00:43:32;;;;;;;;;;;;;;;;;;1022321;28;1324;-13
2021/10/24 00:44:24;;;;;;;;;;;;;;;;;;1033896;28;1056;-13
2021/10/24 00:44:55;;;;;;;;;;;;;;;;;;1029392;28;1274;-14
2021/10/24 00:45:26;;;;;;;;;;;;;;;;;;1022566;28;1139;-13
2021/10/24 00:45:56;;;;;;;;;;;;;;;;;;1021187;29;1708;-13
2021/10/24 00:46:27;;;;;;;;;;;;;;;;;;1025563;28;1147;-13
2021/10/24 00:46:59;;;;;;;;;;;;;;;;;;1026018;28;1476;-13
2021/10/24 00:47:30;;;;;;;;;;;;;;;;;;1021079;29;1286;-12
2021/10/24 00:48:01;;;;;;;;;;;;;;;;;;1017300;29;1168;-13
2021/10/24 00:48:32;;;;;;;;;;;;;;;;;;1021633;29;1332;-13
2021/10/24 00:49:03;;;;;;;;;;;;;;;;;;1025485;28;1364;-13
2021/10/24 00:49:34;;;;;;;;;;;;;;;;;;1018070;28;957;-13
2021/10/24 00:50:04;;;;;;;;;;;;;;;;;;1024964;28;1199;-12
2021/10/24 00:50:35;;;;;;;;;;;;;;;;;;1029368;28;1347;-14
2021/10/24 00:51:07;;;;;;;;;;;;;;;;;;1025843;28;1248;-12
2021/10/24 00:51:38;;;;;;;;;;;;;;;;;;1029501;28;960;-14
2021/10/24 00:52:08;;;;;;;;;;;;;;;;;;1026130;28;1185;-13
2021/10/24 00:52:41;;;;;;;;;;;;;;;;;;1032400;28;1113;-12
2021/10/24 00:53:13;;;;;;;;;;;;;;;;;;1024938;28;1404;-13
2021/10/24 00:53:44;;;;;;;;;;;;;;;;;;1021164;29;1217;-12
2021/10/24 00:54:18;;;;;;;;;;;;;;;;;;1025407;28;1186;-12
2021/10/24 00:54:49;;;;;;;;;;;;;;;;;;1018261;29;1474;-13
2021/10/24 00:55:22;;;;;;;;;;;;;;;;;;1020751;29;1923;-12
2021/10/24 00:55:53;;;;;;;;;;;;;;;;;;1017585;29;1479;-12
2021/10/24 00:56:23;;;;;;;;;;;;;;;;;;1022453;28;1854;-13
2021/10/24 00:56:54;;;;;;;;;;;;;;;;;;1025593;28;1148;-13
2021/10/24 00:57:25;;;;;;;;;;;;;;;;;;1029532;28;977;-13
2021/10/24 00:57:56;;;;;;;;;;;;;;;;;;1024922;28;1421;-12
2021/10/24 00:58:27;;;;;;;;;;;;;;;;;;1021685;29;1063;-13
2021/10/24 00:58:58;;;;;;;;;;;;;;;;;;1025366;28;1218;-13
2021/10/24 00:59:29;;;;;;;;;;;;;;;;;;1025405;28;1205;-13
2021/10/24 01:00:02;;;;;;;;;;;;;;;;;;1029857;28;1568;-12
2021/10/24 01:00:34;;;;;;;;;;;;;;;;;;1025526;28;1482;-12
2021/10/24 01:01:05;;;;;;;;;;;;;;;;;;1021563;29;1245;-12
2021/10/24 01:01:35;;;;;;;;;;;;;;;;;;1021494;29;1140;-13
2021/10/24 01:02:06;;;;;;;;;;;;;;;;;;1021624;28;1157;-13
2021/10/24 01:02:38;;;;;;;;;;;;;;;;;;1025565;28;1212;-12
2021/10/24 01:03:09;;;;;;;;;;;;;;;;;;1029443;28;1075;-13
2021/10/24 01:03:39;;;;;;;;;;;;;;;;;;1021490;29;1036;-12
2021/10/24 01:04:10;;;;;;;;;;;;;;;;;;1021880;28;1272;-13
2021/10/24 01:04:43;;;;;;;;;;;;;;;;;;1033273;28;1092;-12
2021/10/24 01:05:16;;;;;;;;;;;;;;;;;;1033492;28;1133;-13
2021/10/24 01:05:47;;;;;;;;;;;;;;;;;;1029165;28;1225;-12
2021/10/24 01:06:18;;;;;;;;;;;;;;;;;;1029523;28;1428;-13
2021/10/24 01:06:51;;;;;;;;;;;;;;;;;;1017583;29;1287;-13
2021/10/24 01:07:23;;;;;;;;;;;;;;;;;;1009388;29;1209;-13
2021/10/24 01:07:54;;;;;;;;;;;;;;;;;;1002156;29;1749;-14
2021/10/24 01:08:26;;;;;;;;;;;;;;;;;;1003020;29;1333;-13
2021/10/24 01:08:57;;;;;;;;;;;;;;;;;;1009774;29;1347;-13
2021/10/24 01:09:30;;;;;;;;;;;;;;;;;;1010433;29;1195;-15
2021/10/24 01:10:01;;;;;;;;;;;;;;;;;;1016969;29;1193;-13
2021/10/24 01:10:34;;;;;;;;;;;;;;;;;;1021990;28;1417;-12
2021/10/24 01:11:04;;;;;;;;;;;;;;;;;;1021243;29;1351;-13
2021/10/24 01:11:36;;;;;;;;;;;;;;;;;;1025209;28;1352;-13
2021/10/24 01:12:07;;;;;;;;;;;;;;;;;;1021333;28;1431;-15
2021/10/24 01:12:39;;;;;;;;;;;;;;;;;;1025008;28;1589;-13
2021/10/24 01:13:09;;;;;;;;;;;;;;;;;;1024665;28;2218;-13
2021/10/24 01:13:39;;;;;;;;;;;;;;;;;;1017230;29;1149;-10
2021/10/24 01:14:11;;;;;;;;;;;;;;;;;;1017348;29;1199;-13
2021/10/24 01:14:43;;;;;;;;;;;;;;;;;;1021639;28;1427;-13
2021/10/24 01:15:13;;;;;;;;;;;;;;;;;;1021402;29;1914;-12
2021/10/24 01:15:44;;;;;;;;;;;;;;;;;;1022408;28;1116;-12
2021/10/24 01:16:16;;;;;;;;;;;;;;;;;;1029848;28;1566;-12
2021/10/24 01:16:51;;;;;;;;;;;;;;;;;;1030040;28;997;-12
2021/10/24 01:17:23;;;;;;;;;;;;;;;;;;1028958;28;1049;-14
2021/10/24 01:17:55;;;;;;;;;;;;;;;;;;1024890;28;1812;-13
2021/10/24 01:18:27;;;;;;;;;;;;;;;;;;1026686;28;1047;-13
2021/10/24 01:19:00;;;;;;;;;;;;;;;;;;1024273;28;1335;-12
2021/10/24 01:19:31;;;;;;;;;;;;;;;;;;1021113;29;1221;-13
2021/10/24 01:20:02;;;;;;;;;;;;;;;;;;1022223;28;1162;-13
2021/10/24 01:20:32;;;;;;;;;;;;;;;;;;1017880;29;1215;-12
2021/10/24 01:21:03;;;;;;;;;;;;;;;;;;1021796;28;1034;-14
2021/10/24 01:21:34;;;;;;;;;;;;;;;;;;1021455;29;1252;-13
2021/10/24 01:22:06;;;;;;;;;;;;;;;;;;1021819;28;1062;-12
2021/10/24 01:22:37;;;;;;;;;;;;;;;;;;1017457;29;1227;-13
2021/10/24 01:23:09;;;;;;;;;;;;;;;;;;1017536;29;1377;-13
2021/10/24 01:23:40;;;;;;;;;;;;;;;;;;1014106;29;1058;-12
2021/10/24 01:24:12;;;;;;;;;;;;;;;;;;1014151;29;1076;-12
2021/10/24 01:24:43;;;;;;;;;;;;;;;;;;1009494;29;1292;-13
2021/10/24 01:25:14;;;;;;;;;;;;;;;;;;1013397;29;1195;-13
2021/10/24 01:25:45;;;;;;;;;;;;;;;;;;1014840;28;1142;-10
2021/10/24 01:26:16;;;;;;;;;;;;;;;;;;1024612;28;1291;-13
2021/10/24 01:26:46;;;;;;;;;;;;;;;;;;1021457;29;1307;-13
2021/10/24 01:27:17;;;;;;;;;;;;;;;;;;1020949;28;1195;-12
2021/10/24 01:27:49;;;;;;;;;;;;;;;;;;1021353;28;1247;-13
2021/10/24 01:28:20;;;;;;;;;;;;;;;;;;1025437;28;1153;-13
2021/10/24 01:28:50;;;;;;;;;;;;;;;;;;1017118;29;1326;-13
2021/10/24 01:29:23;;;;;;;;;;;;;;;;;;1022053;28;978;-12
2021/10/24 01:29:54;;;;;;;;;;;;;;;;;;1025528;28;1515;-13
2021/10/24 01:30:24;;;;;;;;;;;;;;;;;;1025345;28;1405;-12
2021/10/24 01:30:56;;;;;;;;;;;;;;;;;;1025494;28;1161;-13
2021/10/24 01:31:27;;;;;;;;;;;;;;;;;;1025415;28;1559;-13
2021/10/24 01:31:57;;;;;;;;;;;;;;;;;;1021669;28;1232;-13
2021/10/24 01:32:29;;;;;;;;;;;;;;;;;;1021424;28;1702;-13
2021/10/24 01:33:00;;;;;;;;;;;;;;;;;;1025403;28;1297;-14
2021/10/24 01:33:33;;;;;;;;;;;;;;;;;;1025386;28;1392;-12
2021/10/24 01:34:05;;;;;;;;;;;;;;;;;;1028851;28;1462;-12
2021/10/24 01:34:47;;;;;;;;;;;;;;;;;;1026984;28;1085;-13
2021/10/24 01:35:18;;;;;;;;;;;;;;;;;;1027103;28;1978;-12
2021/10/24 01:35:52;;;;;;;;;;;;;;;;;;1026293;28;1364;-13
2021/10/24 01:36:22;;;;;;;;;;;;;;;;;;1026204;28;1038;-13
2021/10/24 01:36:53;;;;;;;;;;;;;;;;;;1030434;28;1314;-13
2021/10/24 01:37:29;;;;;;;;;;;;;;;;;;1026842;28;1083;-13
2021/10/24 01:38:00;;;;;;;;;;;;;;;;;;1029674;28;1602;-12
2021/10/24 01:38:31;;;;;;;;;;;;;;;;;;1025187;28;1205;-13
2021/10/24 01:39:03;;;;;;;;;;;;;;;;;;1025621;28;1300;-14
2021/10/24 01:39:33;;;;;;;;;;;;;;;;;;1021200;29;1327;-13
2021/10/24 01:40:07;;;;;;;;;;;;;;;;;;1022766;28;1061;-13
2021/10/24 01:40:38;;;;;;;;;;;;;;;;;;1021267;28;1265;-12
2021/10/24 01:41:09;;;;;;;;;;;;;;;;;;1026463;28;1421;-13
2021/10/24 01:41:40;;;;;;;;;;;;;;;;;;1022373;29;1170;-14
2021/10/24 01:42:10;;;;;;;;;;;;;;;;;;1022447;28;1454;-13
2021/10/24 01:42:44;;;;;;;;;;;;;;;;;;1026543;28;1165;-13
2021/10/24 01:43:15;;;;;;;;;;;;;;;;;;1026407;28;1194;-12
2021/10/24 01:43:47;;;;;;;;;;;;;;;;;;1022808;28;1203;-12
2021/10/24 01:44:18;;;;;;;;;;;;;;;;;;1019113;29;973;-13
2021/10/24 01:44:51;;;;;;;;;;;;;;;;;;1017516;29;1478;-12
2021/10/24 01:45:23;;;;;;;;;;;;;;;;;;1019192;28;1260;-12
2021/10/24 01:45:54;;;;;;;;;;;;;;;;;;1023147;28;1572;-12
2021/10/24 01:46:27;;;;;;;;;;;;;;;;;;1024871;28;1336;-13
2021/10/24 01:46:58;;;;;;;;;;;;;;;;;;1021696;29;1208;-13
2021/10/24 01:47:37;;;;;;;;;;;;;;;;;;1019195;29;1576;-13
2021/10/24 01:48:07;;;;;;;;;;;;;;;;;;1020906;28;1642;-12
2021/10/24 01:48:38;;;;;;;;;;;;;;;;;;1022015;29;1265;-13
2021/10/24 01:49:09;;;;;;;;;;;;;;;;;;1022551;29;1103;-13
2021/10/24 01:49:39;;;;;;;;;;;;;;;;;;1022429;28;1400;-13
2021/10/24 01:50:10;;;;;;;;;;;;;;;;;;1026240;28;1158;-14
2021/10/24 01:50:40;;;;;;;;;;;;;;;;;;1030385;28;1417;-13
2021/10/24 01:51:14;;;;;;;;;;;;;;;;;;1030158;28;1168;-12
2021/10/24 01:51:44;;;;;;;;;;;;;;;;;;1025859;28;1481;-12
2021/10/24 01:52:16;;;;;;;;;;;;;;;;;;1018835;29;1048;-12
2021/10/24 01:52:48;;;;;;;;;;;;;;;;;;1022038;28;1424;-13
2021/10/24 01:53:22;;;;;;;;;;;;;;;;;;1018855;29;1362;-12
2021/10/24 01:53:53;;;;;;;;;;;;;;;;;;1022329;28;1117;-13
2021/10/24 01:54:25;;;;;;;;;;;;;;;;;;1025796;28;1230;-12
2021/10/24 01:54:55;;;;;;;;;;;;;;;;;;1026503;28;1479;-12
2021/10/24 01:55:27;;;;;;;;;;;;;;;;;;1024519;28;1907;-13
2021/10/24 01:55:58;;;;;;;;;;;;;;;;;;1018298;29;1185;-12
2021/10/24 01:56:30;;;;;;;;;;;;;;;;;;1026213;28;1363;-12
2021/10/24 01:57:01;;;;;;;;;;;;;;;;;;1025742;28;1728;-13
2021/10/24 01:57:34;;;;;;;;;;;;;;;;;;1021354;29;1113;-13
2021/10/24 01:58:04;;;;;;;;;;;;;;;;;;1021567;29;1186;-13
2021/10/24 01:58:38;;;;;;;;;;;;;;;;;;1021462;29;1416;-13
2021/10/24 01:59:08;;;;;;;;;;;;;;;;;;1023851;28;1427;-13
2021/10/24 02:00:07;;;;;;;;;;;;;;;;;;1029794;28;1107;-12
2021/10/24 02:00:54;;;;;;;;;;;;;;;;;;1029837;28;1898;-12
2021/10/24 02:01:32;;;;;;;;;;;;;;;;;;1034138;28;1184;-12
2021/10/24 02:02:09;;;;;;;;;;;;;;;;;;1034282;28;1225;-12
2021/10/24 02:03:18;;;;;;;;;;;;;;;;;;1032397;28;1108;-13
2021/10/24 02:04:17;;;;;;;;;;;;;;;;;;1026256;28;1287;-12
2021/10/24 02:05:08;;;;;;;;;;;;;;;;;;1018551;29;1257;-12
2021/10/24 02:05:38;;;;;;;;;;;;;;;;;;1018054;29;1342;-12
2021/10/24 02:06:09;;;;;;;;;;;;;;;;;;1018088;29;1315;-12
2021/10/24 02:06:41;;;;;;;;;;;;;;;;;;1017641;29;1035;-13
2021/10/24 02:07:13;;;;;;;;;;;;;;;;;;1020576;29;1423;-13
2021/10/24 02:07:44;;;;;;;;;;;;;;;;;;1017489;29;1282;-12
2021/10/24 02:08:17;;;;;;;;;;;;;;;;;;1013637;29;1381;-13
2021/10/24 02:08:48;;;;;;;;;;;;;;;;;;1014202;29;1481;-13
2021/10/24 02:09:18;;;;;;;;;;;;;;;;;;1016397;29;1182;-13
2021/10/24 02:09:49;;;;;;;;;;;;;;;;;;1021982;28;1285;-12
2021/10/24 02:10:22;;;;;;;;;;;;;;;;;;1026083;28;1211;-13
2021/10/24 02:10:54;;;;;;;;;;;;;;;;;;1026724;28;1051;-13
2021/10/24 02:11:26;;;;;;;;;;;;;;;;;;1016954;29;1708;-12
2021/10/24 02:11:57;;;;;;;;;;;;;;;;;;1017103;29;1299;-13
2021/10/24 02:12:29;;;;;;;;;;;;;;;;;;1018065;28;1367;-12
2021/10/24 02:13:06;;;;;;;;;;;;;;;;;;1025584;28;1439;-12
2021/10/24 02:13:38;;;;;;;;;;;;;;;;;;1028846;28;1288;-12
2021/10/24 02:14:11;;;;;;;;;;;;;;;;;;1023950;28;1860;-13
2021/10/24 02:14:46;;;;;;;;;;;;;;;;;;1022416;28;1092;-12
2021/10/24 02:15:17;;;;;;;;;;;;;;;;;;1034739;28;1918;-13
2021/10/24 02:15:48;;;;;;;;;;;;;;;;;;1039214;28;1485;-13
2021/10/24 02:16:19;;;;;;;;;;;;;;;;;;1034061;28;1299;-13
2021/10/24 02:16:52;;;;;;;;;;;;;;;;;;1033183;28;1323;-12
2021/10/24 02:17:23;;;;;;;;;;;;;;;;;;1034236;28;1174;-12
2021/10/24 02:17:54;;;;;;;;;;;;;;;;;;1025358;28;1118;-12
2021/10/24 02:18:31;;;;;;;;;;;;;;;;;;1021957;28;1193;-12
2021/10/24 02:19:01;;;;;;;;;;;;;;;;;;1021422;29;1274;-13
2021/10/24 02:19:32;;;;;;;;;;;;;;;;;;1019546;28;1437;-13
2021/10/24 02:20:03;;;;;;;;;;;;;;;;;;1022409;28;1838;-12
2021/10/24 02:20:38;;;;;;;;;;;;;;;;;;1033773;28;1372;-12
2021/10/24 02:21:08;;;;;;;;;;;;;;;;;;1034378;28;1267;-13
2021/10/24 02:21:43;;;;;;;;;;;;;;;;;;1031578;28;1168;-12
2021/10/24 02:22:14;;;;;;;;;;;;;;;;;;1023970;28;1210;-13
2021/10/24 02:22:44;;;;;;;;;;;;;;;;;;1014443;29;1237;-12
2021/10/24 02:23:22;;;;;;;;;;;;;;;;;;1016811;29;1201;-13
2021/10/24 02:23:54;;;;;;;;;;;;;;;;;;1020643;28;1058;-12
2021/10/24 02:24:24;;;;;;;;;;;;;;;;;;1027458;28;1434;-12
2021/10/24 02:24:56;;;;;;;;;;;;;;;;;;1031233;28;1743;-13
2021/10/24 02:25:27;;;;;;;;;;;;;;;;;;1034114;28;1047;-12
2021/10/24 02:25:58;;;;;;;;;;;;;;;;;;1034001;28;1246;-13
2021/10/24 02:26:28;;;;;;;;;;;;;;;;;;1030037;28;1205;-13
2021/10/24 02:26:59;;;;;;;;;;;;;;;;;;1030263;28;1043;-13
2021/10/24 02:27:33;;;;;;;;;;;;;;;;;;1029698;28;1120;-13
2021/10/24 02:28:05;;;;;;;;;;;;;;;;;;1034699;28;1180;-13
2021/10/24 02:28:36;;;;;;;;;;;;;;;;;;1032823;28;1700;-12
2021/10/24 02:29:06;;;;;;;;;;;;;;;;;;1033541;28;1188;-12
2021/10/24 02:29:37;;;;;;;;;;;;;;;;;;1025921;28;1391;-14
2021/10/24 02:30:09;;;;;;;;;;;;;;;;;;1030466;28;1323;-13
2021/10/24 02:30:40;;;;;;;;;;;;;;;;;;1030185;28;1096;-13
2021/10/24 02:31:46;;;;;;;;;;;;;;;;;;1018224;29;1136;-13
2021/10/24 02:32:25;;;;;;;;;;;;;;;;;;1019854;29;1052;-12
2021/10/24 02:33:10;;;;;;;;;;;;;;;;;;1021668;29;1186;-14
2021/10/24 02:33:58;;;;;;;;;;;;;;;;;;1019047;28;1441;-13
2021/10/24 02:34:51;;;;;;;;;;;;;;;;;;1026597;28;1337;-12
2021/10/24 02:35:34;;;;;;;;;;;;;;;;;;1030434;28;1910;-12
2021/10/24 02:36:04;;;;;;;;;;;;;;;;;;1030586;28;1175;-13
2021/10/24 02:36:35;;;;;;;;;;;;;;;;;;1030388;28;1090;-12
2021/10/24 02:37:07;;;;;;;;;;;;;;;;;;1030336;28;1363;-12
2021/10/24 02:37:38;;;;;;;;;;;;;;;;;;1029317;28;1223;-13
2021/10/24 02:38:13;;;;;;;;;;;;;;;;;;1029974;28;1359;-12
2021/10/24 02:38:43;;;;;;;;;;;;;;;;;;1025802;28;1384;-13
2021/10/24 02:39:15;;;;;;;;;;;;;;;;;;1025374;28;1283;-12
2021/10/24 02:39:46;;;;;;;;;;;;;;;;;;1025736;28;1233;-13
2021/10/24 02:40:19;;;;;;;;;;;;;;;;;;1021358;28;1833;-12
2021/10/24 02:40:53;;;;;;;;;;;;;;;;;;1018985;29;1184;-12
2021/10/24 02:41:24;;;;;;;;;;;;;;;;;;1018059;29;1296;-13
2021/10/24 02:41:59;;;;;;;;;;;;;;;;;;1018110;29;1233;-13
2021/10/24 02:42:30;;;;;;;;;;;;;;;;;;1024955;28;1212;-13
2021/10/24 02:43:01;;;;;;;;;;;;;;;;;;1025325;28;1259;-13
2021/10/24 02:43:34;;;;;;;;;;;;;;;;;;1021593;28;1344;-13
2021/10/24 02:44:04;;;;;;;;;;;;;;;;;;1025915;28;1371;-13
2021/10/24 02:44:42;;;;;;;;;;;;;;;;;;1023833;28;1590;-13
2021/10/24 02:45:14;;;;;;;;;;;;;;;;;;1034006;28;1348;-13
2021/10/24 02:45:44;;;;;;;;;;;;;;;;;;1037023;28;1058;-13
2021/10/24 02:46:16;;;;;;;;;;;;;;;;;;1025923;28;1551;-14
2021/10/24 02:46:47;;;;;;;;;;;;;;;;;;1021291;28;1030;-11
2021/10/24 02:47:18;;;;;;;;;;;;;;;;;;1017462;29;1170;-12
2021/10/24 02:47:49;;;;;;;;;;;;;;;;;;1014858;28;1316;-13
2021/10/24 02:48:20;;;;;;;;;;;;;;;;;;1029586;28;1437;-12
2021/10/24 02:48:50;;;;;;;;;;;;;;;;;;1025662;28;1238;-13
2021/10/24 02:49:21;;;;;;;;;;;;;;;;;;1034141;28;1163;-12
2021/10/24 02:49:54;;;;;;;;;;;;;;;;;;1028954;28;1518;-13
2021/10/24 02:50:25;;;;;;;;;;;;;;;;;;1021720;29;1285;-12
2021/10/24 02:50:58;;;;;;;;;;;;;;;;;;1022159;29;1237;-12
2021/10/24 02:51:28;;;;;;;;;;;;;;;;;;1013299;29;1245;-13
2021/10/24 02:52:01;;;;;;;;;;;;;;;;;;1018167;29;1194;-12
2021/10/24 02:52:35;;;;;;;;;;;;;;;;;;1015714;29;1728;-13
2021/10/24 02:53:05;;;;;;;;;;;;;;;;;;1015020;29;1305;-13
2021/10/24 02:53:37;;;;;;;;;;;;;;;;;;1022589;28;1454;-12
2021/10/24 02:54:11;;;;;;;;;;;;;;;;;;1018449;28;1282;-13
2021/10/24 02:54:42;;;;;;;;;;;;;;;;;;1024476;28;1202;-12
2021/10/24 02:55:13;;;;;;;;;;;;;;;;;;1024542;28;1304;-13
2021/10/24 02:55:44;;;;;;;;;;;;;;;;;;1021479;28;1088;-12
2021/10/24 02:56:17;;;;;;;;;;;;;;;;;;1028672;28;1201;-13
2021/10/24 02:56:48;;;;;;;;;;;;;;;;;;1028466;28;1256;-12
2021/10/24 02:57:21;;;;;;;;;;;;;;;;;;1035015;28;1247;-13
2021/10/24 02:57:52;;;;;;;;;;;;;;;;;;1033125;28;1780;-13
2021/10/24 02:58:24;;;;;;;;;;;;;;;;;;1028739;28;2005;-13
2021/10/24 02:58:55;;;;;;;;;;;;;;;;;;1029635;28;1522;-13
2021/10/24 02:59:26;;;;;;;;;;;;;;;;;;1033138;28;1445;-13
2021/10/24 02:59:57;;;;;;;;;;;;;;;;;;1029811;28;1175;-13
2021/10/24 03:00:28;;;;;;;;;;;;;;;;;;1028756;28;1382;-13
2021/10/24 03:00:59;;;;;;;;;;;;;;;;;;1033114;28;1237;-13
2021/10/24 03:01:32;;;;;;;;;;;;;;;;;;1021904;29;1032;-13
2021/10/24 03:02:03;;;;;;;;;;;;;;;;;;1022350;28;1170;-12
2021/10/24 03:02:36;;;;;;;;;;;;;;;;;;1022526;28;1842;-13
2021/10/24 03:03:07;;;;;;;;;;;;;;;;;;1029749;28;1238;-13
2021/10/24 03:03:39;;;;;;;;;;;;;;;;;;1025505;28;1342;-13
2021/10/24 03:04:11;;;;;;;;;;;;;;;;;;1026117;28;1338;-13
2021/10/24 03:04:43;;;;;;;;;;;;;;;;;;1024962;28;1265;-13
2021/10/24 03:05:14;;;;;;;;;;;;;;;;;;1029948;28;1105;-12
2021/10/24 03:05:48;;;;;;;;;;;;;;;;;;1029287;28;1558;-10
2021/10/24 03:06:18;;;;;;;;;;;;;;;;;;1026179;28;1299;-13
2021/10/24 03:06:49;;;;;;;;;;;;;;;;;;1017428;29;1581;-13
2021/10/24 03:07:20;;;;;;;;;;;;;;;;;;1017982;29;1297;-13
2021/10/24 03:07:51;;;;;;;;;;;;;;;;;;1017930;29;947;-13
2021/10/24 03:08:22;;;;;;;;;;;;;;;;;;1019608;28;866;-12
2021/10/24 03:08:53;;;;;;;;;;;;;;;;;;1037659;28;1615;-12
2021/10/24 03:09:24;;;;;;;;;;;;;;;;;;1042439;28;1022;-12
2021/10/24 03:09:55;;;;;;;;;;;;;;;;;;1033116;28;1248;-11
2021/10/24 03:10:26;;;;;;;;;;;;;;;;;;1033641;28;1182;-13
2021/10/24 03:10:56;;;;;;;;;;;;;;;;;;1029375;28;1513;-11
2021/10/24 03:11:27;;;;;;;;;;;;;;;;;;1021137;29;1223;-12
2021/10/24 03:11:58;;;;;;;;;;;;;;;;;;1022134;29;1374;-12
2021/10/24 03:12:29;;;;;;;;;;;;;;;;;;1041333;28;1613;-13
2021/10/24 03:13:00;;;;;;;;;;;;;;;;;;1033895;28;1157;-13
2021/10/24 03:13:31;;;;;;;;;;;;;;;;;;1033718;28;1216;-12
2021/10/24 03:14:03;;;;;;;;;;;;;;;;;;1027954;28;1153;-12
2021/10/24 03:14:34;;;;;;;;;;;;;;;;;;1013806;29;1790;-13
2021/10/24 03:15:06;;;;;;;;;;;;;;;;;;1018263;29;1138;-12
2021/10/24 03:15:36;;;;;;;;;;;;;;;;;;1020763;28;1915;-13
2021/10/24 03:16:08;;;;;;;;;;;;;;;;;;1013968;29;1354;-12
2021/10/24 03:16:39;;;;;;;;;;;;;;;;;;1017368;29;1096;-13
2021/10/24 03:17:10;;;;;;;;;;;;;;;;;;1018023;29;1189;-13
2021/10/24 03:17:44;;;;;;;;;;;;;;;;;;1023391;28;1359;-13
2021/10/24 03:18:15;;;;;;;;;;;;;;;;;;1028832;28;1258;-13
2021/10/24 03:18:46;;;;;;;;;;;;;;;;;;1031889;28;1172;-12
2021/10/24 03:19:17;;;;;;;;;;;;;;;;;;1028975;28;1308;-13
2021/10/24 03:19:55;;;;;;;;;;;;;;;;;;1024447;28;1681;-12
2021/10/24 03:20:26;;;;;;;;;;;;;;;;;;1026169;28;1232;-13
2021/10/24 03:20:56;;;;;;;;;;;;;;;;;;1016752;28;1401;-13
2021/10/24 03:21:27;;;;;;;;;;;;;;;;;;1018227;29;1226;-12
2021/10/24 03:21:59;;;;;;;;;;;;;;;;;;1025338;28;1525;-13
2021/10/24 03:22:30;;;;;;;;;;;;;;;;;;1030208;28;968;-13
2021/10/24 03:23:05;;;;;;;;;;;;;;;;;;1029461;28;1344;-13
2021/10/24 03:23:36;;;;;;;;;;;;;;;;;;1033269;28;1190;-13
2021/10/24 03:24:07;;;;;;;;;;;;;;;;;;1033937;28;1147;-12
2021/10/24 03:24:38;;;;;;;;;;;;;;;;;;1023450;28;1473;-13
2021/10/24 03:25:10;;;;;;;;;;;;;;;;;;1017849;29;1095;-13
2021/10/24 03:25:40;;;;;;;;;;;;;;;;;;1022097;29;1224;-12
2021/10/24 03:26:11;;;;;;;;;;;;;;;;;;1017530;28;1551;-13
2021/10/24 03:26:42;;;;;;;;;;;;;;;;;;1021652;29;1246;-13
2021/10/24 03:27:16;;;;;;;;;;;;;;;;;;1021417;28;1485;-12
2021/10/24 03:27:47;;;;;;;;;;;;;;;;;;1018179;29;1162;-12
2021/10/24 03:28:21;;;;;;;;;;;;;;;;;;1024113;28;935;-13
2021/10/24 03:28:51;;;;;;;;;;;;;;;;;;1018375;29;1614;-13
2021/10/24 03:29:23;;;;;;;;;;;;;;;;;;1017863;29;976;-12
2021/10/24 03:29:57;;;;;;;;;;;;;;;;;;1017978;29;1240;-12
2021/10/24 03:30:30;;;;;;;;;;;;;;;;;;1017614;29;1099;-14
2021/10/24 03:31:03;;;;;;;;;;;;;;;;;;1023242;28;1185;-12
2021/10/24 03:31:35;;;;;;;;;;;;;;;;;;1027874;28;1726;-13
2021/10/24 03:32:07;;;;;;;;;;;;;;;;;;1021884;28;1142;-12
2021/10/24 03:32:38;;;;;;;;;;;;;;;;;;1022939;28;1119;-13
2021/10/24 03:33:09;;;;;;;;;;;;;;;;;;1020852;29;1294;-13
2021/10/24 03:33:40;;;;;;;;;;;;;;;;;;1017491;29;1069;-12
2021/10/24 03:34:13;;;;;;;;;;;;;;;;;;1016922;29;1333;-13
2021/10/24 03:34:44;;;;;;;;;;;;;;;;;;1021561;28;1271;-13
2021/10/24 03:35:14;;;;;;;;;;;;;;;;;;1021177;28;1437;-12
2021/10/24 03:35:47;;;;;;;;;;;;;;;;;;1025839;28;986;-13
2021/10/24 03:36:18;;;;;;;;;;;;;;;;;;1027118;28;1165;-14
2021/10/24 03:36:51;;;;;;;;;;;;;;;;;;1036448;28;1340;-12
2021/10/24 03:37:22;;;;;;;;;;;;;;;;;;1025619;28;1466;-14
2021/10/24 03:37:55;;;;;;;;;;;;;;;;;;1021202;29;1181;-13
2021/10/24 03:38:26;;;;;;;;;;;;;;;;;;1025805;28;1077;-13
2021/10/24 03:39:01;;;;;;;;;;;;;;;;;;1019826;28;1145;-12
2021/10/24 03:39:32;;;;;;;;;;;;;;;;;;1023705;28;1622;-12
2021/10/24 03:40:10;;;;;;;;;;;;;;;;;;1020503;29;1185;-12
2021/10/24 03:40:40;;;;;;;;;;;;;;;;;;1019455;29;1628;-13
2021/10/24 03:41:11;;;;;;;;;;;;;;;;;;1018700;29;1277;-12
2021/10/24 03:41:42;;;;;;;;;;;;;;;;;;1012865;29;1205;-13
2021/10/24 03:42:16;;;;;;;;;;;;;;;;;;1009750;29;1248;-13
2021/10/24 03:42:47;;;;;;;;;;;;;;;;;;1014974;28;1316;-13
2021/10/24 03:43:18;;;;;;;;;;;;;;;;;;1021566;28;1202;-13